sensor_id;sensor_type;location;lat;lon;timestamp;temperature;humidity
32394;DHT22;18853;45.426;9.206;2023-08-06T00:00:20;28.30;43.00
32394;DHT22;18853;45.426;9.206;2023-08-06T00:02:46;28.30;43.20
32394;DHT22;18853;45.426;9.206;2023-08-06T00:05:12;28.30;43.30
32394;DHT22;18853;45.426;9.206;2023-08-06T00:07:38;28.20;43.20
32394;DHT22;18853;45.426;9.206;2023-08-06T00:10:04;28.20;43.20
32394;DHT22;18853;45.426;9.206;2023-08-06T00:12:29;28.20;43.30
32394;DHT22;18853;45.426;9.206;2023-08-06T00:14:55;28.20;43.30
32394;DHT22;18853;45.426;9.206;2023-08-06T00:17:21;28.20;43.20
32394;DHT22;18853;45.426;9.206;2023-08-06T00:19:46;28.20;43.30
32394;DHT22;18853;45.426;9.206;2023-08-06T00:22:12;28.20;43.40
32394;DHT22;18853;45.426;9.206;2023-08-06T00:24:38;28.20;43.30
32394;DHT22;18853;45.426;9.206;2023-08-06T00:27:03;28.10;43.20
32394;DHT22;18853;45.426;9.206;2023-08-06T00:29:29;28.20;43.20
32394;DHT22;18853;45.426;9.206;2023-08-06T00:31:55;28.10;43.00
32394;DHT22;18853;45.426;9.206;2023-08-06T00:34:20;28.10;43.00
32394;DHT22;18853;45.426;9.206;2023-08-06T00:36:46;28.10;43.00
32394;DHT22;18853;45.426;9.206;2023-08-06T00:39:12;28.10;43.10
32394;DHT22;18853;45.426;9.206;2023-08-06T00:41:37;28.10;43.20
32394;DHT22;18853;45.426;9.206;2023-08-06T00:44:03;28.10;43.20
32394;DHT22;18853;45.426;9.206;2023-08-06T00:46:30;28.10;43.10
32394;DHT22;18853;45.426;9.206;2023-08-06T00:48:56;28.10;43.00
32394;DHT22;18853;45.426;9.206;2023-08-06T00:51:22;28.10;42.90
32394;DHT22;18853;45.426;9.206;2023-08-06T00:53:50;28.10;42.90
32394;DHT22;18853;45.426;9.206;2023-08-06T00:56:16;28.10;42.90
32394;DHT22;18853;45.426;9.206;2023-08-06T00:58:42;28.10;43.00
32394;DHT22;18853;45.426;9.206;2023-08-06T01:01:08;28.10;43.00
32394;DHT22;18853;45.426;9.206;2023-08-06T01:03:34;28.10;43.00
32394;DHT22;18853;45.426;9.206;2023-08-06T01:06:00;28.10;43.10
32394;DHT22;18853;45.426;9.206;2023-08-06T01:08:39;28.10;43.10
32394;DHT22;18853;45.426;9.206;2023-08-06T01:13:46;28.00;43.10
32394;DHT22;18853;45.426;9.206;2023-08-06T01:16:15;28.10;43.40
32394;DHT22;18853;45.426;9.206;2023-08-06T01:18:42;28.00;43.50
32394;DHT22;18853;45.426;9.206;2023-08-06T01:21:15;28.00;43.50
32394;DHT22;18853;45.426;9.206;2023-08-06T01:23:41;28.00;43.50
32394;DHT22;18853;45.426;9.206;2023-08-06T01:29:23;27.90;43.50
32394;DHT22;18853;45.426;9.206;2023-08-06T01:31:51;27.90;43.80
32394;DHT22;18853;45.426;9.206;2023-08-06T01:34:21;27.80;44.00
32394;DHT22;18853;45.426;9.206;2023-08-06T01:36:47;27.80;44.20
32394;DHT22;18853;45.426;9.206;2023-08-06T01:39:13;27.70;44.20
32394;DHT22;18853;45.426;9.206;2023-08-06T01:41:39;27.70;44.20
32394;DHT22;18853;45.426;9.206;2023-08-06T01:44:05;27.70;44.20
32394;DHT22;18853;45.426;9.206;2023-08-06T01:46:30;27.70;44.40
32394;DHT22;18853;45.426;9.206;2023-08-06T01:48:56;27.60;44.40
32394;DHT22;18853;45.426;9.206;2023-08-06T01:51:22;27.60;44.50
32394;DHT22;18853;45.426;9.206;2023-08-06T01:53:47;27.60;44.50
32394;DHT22;18853;45.426;9.206;2023-08-06T01:56:13;27.50;44.60
32394;DHT22;18853;45.426;9.206;2023-08-06T01:58:39;27.50;44.60
32394;DHT22;18853;45.426;9.206;2023-08-06T02:01:04;27.50;44.80
32394;DHT22;18853;45.426;9.206;2023-08-06T02:03:30;27.50;44.90
32394;DHT22;18853;45.426;9.206;2023-08-06T02:05:56;27.40;45.00
32394;DHT22;18853;45.426;9.206;2023-08-06T02:08:21;27.40;45.00
32394;DHT22;18853;45.426;9.206;2023-08-06T02:10:47;27.50;45.10
32394;DHT22;18853;45.426;9.206;2023-08-06T02:13:13;27.40;45.10
32394;DHT22;18853;45.426;9.206;2023-08-06T02:15:43;27.40;45.20
32394;DHT22;18853;45.426;9.206;2023-08-06T02:18:09;27.50;45.30
32394;DHT22;18853;45.426;9.206;2023-08-06T02:20:35;27.40;45.30
32394;DHT22;18853;45.426;9.206;2023-08-06T02:23:00;27.40;45.20
32394;DHT22;18853;45.426;9.206;2023-08-06T02:25:26;27.40;45.20
32394;DHT22;18853;45.426;9.206;2023-08-06T02:27:51;27.40;45.30
32394;DHT22;18853;45.426;9.206;2023-08-06T02:30:17;27.40;45.30
32394;DHT22;18853;45.426;9.206;2023-08-06T02:32:43;27.40;45.40
32394;DHT22;18853;45.426;9.206;2023-08-06T02:35:08;27.40;45.40
32394;DHT22;18853;45.426;9.206;2023-08-06T02:37:34;27.40;45.50
32394;DHT22;18853;45.426;9.206;2023-08-06T02:40:00;27.40;45.50
32394;DHT22;18853;45.426;9.206;2023-08-06T02:42:26;27.40;45.50
32394;DHT22;18853;45.426;9.206;2023-08-06T02:44:52;27.40;45.70
32394;DHT22;18853;45.426;9.206;2023-08-06T02:47:20;27.40;45.90
32394;DHT22;18853;45.426;9.206;2023-08-06T02:49:46;27.30;46.00
32394;DHT22;18853;45.426;9.206;2023-08-06T02:52:12;27.30;45.80
32394;DHT22;18853;45.426;9.206;2023-08-06T02:54:38;27.30;45.90
32394;DHT22;18853;45.426;9.206;2023-08-06T02:57:04;27.30;45.90
32394;DHT22;18853;45.426;9.206;2023-08-06T02:59:31;27.20;45.50
32394;DHT22;18853;45.426;9.206;2023-08-06T03:01:56;27.20;45.40
32394;DHT22;18853;45.426;9.206;2023-08-06T03:04:22;27.20;45.60
32394;DHT22;18853;45.426;9.206;2023-08-06T03:06:50;27.20;45.90
32394;DHT22;18853;45.426;9.206;2023-08-06T03:09:16;27.20;45.80
32394;DHT22;18853;45.426;9.206;2023-08-06T03:11:42;27.20;45.50
32394;DHT22;18853;45.426;9.206;2023-08-06T03:14:08;27.20;45.30
32394;DHT22;18853;45.426;9.206;2023-08-06T03:16:34;27.20;45.00
32394;DHT22;18853;45.426;9.206;2023-08-06T03:18:59;27.20;44.90
32394;DHT22;18853;45.426;9.206;2023-08-06T03:21:25;27.20;44.90
32394;DHT22;18853;45.426;9.206;2023-08-06T03:23:51;27.20;45.00
32394;DHT22;18853;45.426;9.206;2023-08-06T03:26:16;27.10;45.00
32394;DHT22;18853;45.426;9.206;2023-08-06T03:28:42;27.10;45.00
32394;DHT22;18853;45.426;9.206;2023-08-06T03:31:08;27.10;45.20
32394;DHT22;18853;45.426;9.206;2023-08-06T03:33:33;27.10;45.30
32394;DHT22;18853;45.426;9.206;2023-08-06T03:35:59;27.10;45.30
32394;DHT22;18853;45.426;9.206;2023-08-06T03:38:25;27.10;45.40
32394;DHT22;18853;45.426;9.206;2023-08-06T03:40:50;27.10;45.60
32394;DHT22;18853;45.426;9.206;2023-08-06T03:43:16;27.10;45.60
32394;DHT22;18853;45.426;9.206;2023-08-06T03:45:42;27.10;45.70
32394;DHT22;18853;45.426;9.206;2023-08-06T03:48:08;27.10;45.70
32394;DHT22;18853;45.426;9.206;2023-08-06T03:50:34;27.00;45.80
32394;DHT22;18853;45.426;9.206;2023-08-06T03:53:00;27.00;45.80
32394;DHT22;18853;45.426;9.206;2023-08-06T03:55:25;27.00;46.00
32394;DHT22;18853;45.426;9.206;2023-08-06T03:57:51;26.90;46.00
32394;DHT22;18853;45.426;9.206;2023-08-06T04:00:17;26.90;46.10
32394;DHT22;18853;45.426;9.206;2023-08-06T04:02:42;26.80;46.00
32394;DHT22;18853;45.426;9.206;2023-08-06T04:05:08;26.70;46.90
32394;DHT22;18853;45.426;9.206;2023-08-06T04:07:34;26.60;46.60
32394;DHT22;18853;45.426;9.206;2023-08-06T04:10:02;26.60;46.90
32394;DHT22;18853;45.426;9.206;2023-08-06T04:12:28;26.50;47.00
32394;DHT22;18853;45.426;9.206;2023-08-06T04:14:55;26.50;47.30
32394;DHT22;18853;45.426;9.206;2023-08-06T04:17:21;26.40;47.90
32394;DHT22;18853;45.426;9.206;2023-08-06T04:19:54;26.40;47.40
32394;DHT22;18853;45.426;9.206;2023-08-06T04:22:20;26.40;47.70
32394;DHT22;18853;45.426;9.206;2023-08-06T04:24:47;26.30;47.90
32394;DHT22;18853;45.426;9.206;2023-08-06T04:27:14;26.30;48.00
32394;DHT22;18853;45.426;9.206;2023-08-06T04:29:40;26.30;48.20
32394;DHT22;18853;45.426;9.206;2023-08-06T04:32:08;26.20;48.20
32394;DHT22;18853;45.426;9.206;2023-08-06T04:34:35;26.20;48.40
32394;DHT22;18853;45.426;9.206;2023-08-06T04:37:01;26.10;48.60
32394;DHT22;18853;45.426;9.206;2023-08-06T04:39:27;26.10;48.70
32394;DHT22;18853;45.426;9.206;2023-08-06T04:41:53;26.10;48.80
32394;DHT22;18853;45.426;9.206;2023-08-06T04:44:18;26.10;49.00
32394;DHT22;18853;45.426;9.206;2023-08-06T04:46:44;26.00;49.10
32394;DHT22;18853;45.426;9.206;2023-08-06T04:49:10;25.90;49.20
32394;DHT22;18853;45.426;9.206;2023-08-06T04:51:35;25.90;49.30
32394;DHT22;18853;45.426;9.206;2023-08-06T04:54:01;25.90;49.40
32394;DHT22;18853;45.426;9.206;2023-08-06T04:56:27;25.90;49.50
32394;DHT22;18853;45.426;9.206;2023-08-06T04:58:53;25.80;49.50
32394;DHT22;18853;45.426;9.206;2023-08-06T05:01:19;25.80;49.60
32394;DHT22;18853;45.426;9.206;2023-08-06T05:03:44;25.80;49.70
32394;DHT22;18853;45.426;9.206;2023-08-06T05:06:10;25.80;49.80
32394;DHT22;18853;45.426;9.206;2023-08-06T05:08:36;25.80;49.80
32394;DHT22;18853;45.426;9.206;2023-08-06T05:11:02;25.80;49.80
32394;DHT22;18853;45.426;9.206;2023-08-06T05:13:27;25.80;49.80
32394;DHT22;18853;45.426;9.206;2023-08-06T05:15:54;25.80;49.90
32394;DHT22;18853;45.426;9.206;2023-08-06T05:18:19;25.80;50.00
32394;DHT22;18853;45.426;9.206;2023-08-06T05:20:45;25.80;50.20
32394;DHT22;18853;45.426;9.206;2023-08-06T05:23:11;25.80;50.20
32394;DHT22;18853;45.426;9.206;2023-08-06T05:25:37;25.80;50.40
32394;DHT22;18853;45.426;9.206;2023-08-06T05:28:04;25.70;50.60
32394;DHT22;18853;45.426;9.206;2023-08-06T05:30:30;25.60;50.70
32394;DHT22;18853;45.426;9.206;2023-08-06T05:32:56;25.60;50.90
32394;DHT22;18853;45.426;9.206;2023-08-06T05:35:22;25.70;50.90
32394;DHT22;18853;45.426;9.206;2023-08-06T05:37:49;25.60;50.90
32394;DHT22;18853;45.426;9.206;2023-08-06T05:40:15;25.70;51.00
32394;DHT22;18853;45.426;9.206;2023-08-06T05:42:41;25.70;50.90
32394;DHT22;18853;45.426;9.206;2023-08-06T05:45:07;25.80;51.00
32394;DHT22;18853;45.426;9.206;2023-08-06T05:47:33;25.80;51.00
32394;DHT22;18853;45.426;9.206;2023-08-06T05:49:59;25.70;51.00
32394;DHT22;18853;45.426;9.206;2023-08-06T05:52:25;25.70;51.00
32394;DHT22;18853;45.426;9.206;2023-08-06T05:54:50;25.70;51.00
32394;DHT22;18853;45.426;9.206;2023-08-06T05:57:17;25.80;51.00
32394;DHT22;18853;45.426;9.206;2023-08-06T05:59:43;25.70;51.00
32394;DHT22;18853;45.426;9.206;2023-08-06T06:02:08;25.80;51.00
32394;DHT22;18853;45.426;9.206;2023-08-06T06:04:34;25.80;51.00
32394;DHT22;18853;45.426;9.206;2023-08-06T06:07:00;25.70;51.00
32394;DHT22;18853;45.426;9.206;2023-08-06T06:09:26;25.80;51.20
32394;DHT22;18853;45.426;9.206;2023-08-06T06:11:51;25.70;51.20
32394;DHT22;18853;45.426;9.206;2023-08-06T06:14:20;25.70;51.30
32394;DHT22;18853;45.426;9.206;2023-08-06T06:16:45;25.80;51.30
32394;DHT22;18853;45.426;9.206;2023-08-06T06:19:12;25.80;51.30
32394;DHT22;18853;45.426;9.206;2023-08-06T06:21:38;25.80;51.10
32394;DHT22;18853;45.426;9.206;2023-08-06T06:24:05;25.80;51.00
32394;DHT22;18853;45.426;9.206;2023-08-06T06:26:31;25.70;50.90
32394;DHT22;18853;45.426;9.206;2023-08-06T06:28:57;25.80;50.90
32394;DHT22;18853;45.426;9.206;2023-08-06T06:31:23;25.80;50.60
32394;DHT22;18853;45.426;9.206;2023-08-06T06:33:49;25.90;50.60
32394;DHT22;18853;45.426;9.206;2023-08-06T06:36:15;25.90;50.60
32394;DHT22;18853;45.426;9.206;2023-08-06T06:38:40;25.90;50.50
32394;DHT22;18853;45.426;9.206;2023-08-06T06:41:06;26.00;50.50
32394;DHT22;18853;45.426;9.206;2023-08-06T06:43:32;25.90;50.60
32394;DHT22;18853;45.426;9.206;2023-08-06T06:45:59;25.90;50.60
32394;DHT22;18853;45.426;9.206;2023-08-06T06:48:31;25.90;50.70
32394;DHT22;18853;45.426;9.206;2023-08-06T06:50:56;25.90;50.90
32394;DHT22;18853;45.426;9.206;2023-08-06T06:53:22;25.80;51.00
32394;DHT22;18853;45.426;9.206;2023-08-06T06:56:00;25.90;50.90
32394;DHT22;18853;45.426;9.206;2023-08-06T06:58:26;25.80;51.00
32394;DHT22;18853;45.426;9.206;2023-08-06T07:00:52;25.80;51.00
32394;DHT22;18853;45.426;9.206;2023-08-06T07:03:19;25.80;50.80
32394;DHT22;18853;45.426;9.206;2023-08-06T07:05:45;25.80;50.60
32394;DHT22;18853;45.426;9.206;2023-08-06T07:08:11;26.00;50.60
32394;DHT22;18853;45.426;9.206;2023-08-06T07:10:37;25.90;50.50
32394;DHT22;18853;45.426;9.206;2023-08-06T07:13:02;26.00;50.20
32394;DHT22;18853;45.426;9.206;2023-08-06T07:15:28;26.00;49.70
32394;DHT22;18853;45.426;9.206;2023-08-06T07:17:54;26.10;49.50
32394;DHT22;18853;45.426;9.206;2023-08-06T07:20:20;26.10;49.40
32394;DHT22;18853;45.426;9.206;2023-08-06T07:22:46;26.10;49.20
32394;DHT22;18853;45.426;9.206;2023-08-06T07:25:11;26.20;49.20
32394;DHT22;18853;45.426;9.206;2023-08-06T07:27:37;26.10;49.20
32394;DHT22;18853;45.426;9.206;2023-08-06T07:30:03;26.10;49.20
32394;DHT22;18853;45.426;9.206;2023-08-06T07:32:31;26.10;49.00
32394;DHT22;18853;45.426;9.206;2023-08-06T07:34:57;26.10;48.70
32394;DHT22;18853;45.426;9.206;2023-08-06T07:37:28;26.20;48.60
32394;DHT22;18853;45.426;9.206;2023-08-06T07:39:55;26.20;48.40
32394;DHT22;18853;45.426;9.206;2023-08-06T07:42:21;26.20;48.50
32394;DHT22;18853;45.426;9.206;2023-08-06T07:44:52;26.30;48.80
32394;DHT22;18853;45.426;9.206;2023-08-06T07:47:18;26.40;48.90
32394;DHT22;18853;45.426;9.206;2023-08-06T07:49:44;26.40;48.60
32394;DHT22;18853;45.426;9.206;2023-08-06T07:52:09;26.40;48.00
32394;DHT22;18853;45.426;9.206;2023-08-06T07:54:36;26.40;48.70
32394;DHT22;18853;45.426;9.206;2023-08-06T07:57:02;26.40;49.00
32394;DHT22;18853;45.426;9.206;2023-08-06T07:59:27;26.40;48.60
32394;DHT22;18853;45.426;9.206;2023-08-06T08:01:53;26.50;48.50
32394;DHT22;18853;45.426;9.206;2023-08-06T08:04:19;26.50;48.40
32394;DHT22;18853;45.426;9.206;2023-08-06T08:06:44;26.50;48.40
32394;DHT22;18853;45.426;9.206;2023-08-06T08:09:10;26.50;48.10
32394;DHT22;18853;45.426;9.206;2023-08-06T08:11:36;26.50;48.10
32394;DHT22;18853;45.426;9.206;2023-08-06T08:14:01;26.50;48.30
32394;DHT22;18853;45.426;9.206;2023-08-06T08:16:28;26.50;48.20
32394;DHT22;18853;45.426;9.206;2023-08-06T08:18:53;26.50;48.00
32394;DHT22;18853;45.426;9.206;2023-08-06T08:21:19;26.60;48.00
32394;DHT22;18853;45.426;9.206;2023-08-06T08:23:45;26.60;47.40
32394;DHT22;18853;45.426;9.206;2023-08-06T08:26:10;26.60;46.70
32394;DHT22;18853;45.426;9.206;2023-08-06T08:28:36;26.70;46.10
32394;DHT22;18853;45.426;9.206;2023-08-06T08:31:01;26.70;45.50
32394;DHT22;18853;45.426;9.206;2023-08-06T08:33:27;26.80;45.40
32394;DHT22;18853;45.426;9.206;2023-08-06T08:35:53;26.90;45.40
32394;DHT22;18853;45.426;9.206;2023-08-06T08:38:18;26.90;45.70
32394;DHT22;18853;45.426;9.206;2023-08-06T08:40:50;26.90;45.60
32394;DHT22;18853;45.426;9.206;2023-08-06T08:43:24;27.00;45.70
32394;DHT22;18853;45.426;9.206;2023-08-06T08:45:51;27.00;45.80
32394;DHT22;18853;45.426;9.206;2023-08-06T08:48:17;27.00;45.10
32394;DHT22;18853;45.426;9.206;2023-08-06T08:50:47;27.10;44.30
32394;DHT22;18853;45.426;9.206;2023-08-06T08:53:15;27.10;43.00
32394;DHT22;18853;45.426;9.206;2023-08-06T08:55:43;27.10;42.80
32394;DHT22;18853;45.426;9.206;2023-08-06T08:58:10;27.10;42.30
32394;DHT22;18853;45.426;9.206;2023-08-06T09:00:36;27.20;42.10
32394;DHT22;18853;45.426;9.206;2023-08-06T09:03:02;27.20;42.00
32394;DHT22;18853;45.426;9.206;2023-08-06T09:05:32;27.20;41.80
32394;DHT22;18853;45.426;9.206;2023-08-06T09:08:02;27.20;41.70
32394;DHT22;18853;45.426;9.206;2023-08-06T09:10:29;27.30;41.60
32394;DHT22;18853;45.426;9.206;2023-08-06T09:12:56;27.40;41.70
32394;DHT22;18853;45.426;9.206;2023-08-06T09:15:26;27.50;40.90
32394;DHT22;18853;45.426;9.206;2023-08-06T09:17:52;27.60;40.60
32394;DHT22;18853;45.426;9.206;2023-08-06T09:20:18;27.60;40.10
32394;DHT22;18853;45.426;9.206;2023-08-06T09:22:44;27.60;39.50
32394;DHT22;18853;45.426;9.206;2023-08-06T09:25:11;27.70;39.70
32394;DHT22;18853;45.426;9.206;2023-08-06T09:27:39;27.70;39.40
32394;DHT22;18853;45.426;9.206;2023-08-06T09:30:06;27.80;39.50
32394;DHT22;18853;45.426;9.206;2023-08-06T09:32:45;27.80;39.50
32394;DHT22;18853;45.426;9.206;2023-08-06T09:35:16;27.80;38.20
32394;DHT22;18853;45.426;9.206;2023-08-06T09:37:42;27.80;37.10
32394;DHT22;18853;45.426;9.206;2023-08-06T09:40:30;27.80;36.90
32394;DHT22;18853;45.426;9.206;2023-08-06T09:42:57;27.90;36.80
32394;DHT22;18853;45.426;9.206;2023-08-06T09:45:31;27.90;36.00
32394;DHT22;18853;45.426;9.206;2023-08-06T09:47:59;28.00;34.50
32394;DHT22;18853;45.426;9.206;2023-08-06T09:50:29;28.00;30.00
32394;DHT22;18853;45.426;9.206;2023-08-06T09:52:59;28.20;32.00
32394;DHT22;18853;45.426;9.206;2023-08-06T09:55:26;28.20;33.50
32394;DHT22;18853;45.426;9.206;2023-08-06T09:57:52;28.20;34.70
32394;DHT22;18853;45.426;9.206;2023-08-06T10:00:18;28.30;33.80
32394;DHT22;18853;45.426;9.206;2023-08-06T10:02:44;28.30;28.60
32394;DHT22;18853;45.426;9.206;2023-08-06T10:05:10;28.40;28.20
32394;DHT22;18853;45.426;9.206;2023-08-06T10:07:36;28.40;27.20
32394;DHT22;18853;45.426;9.206;2023-08-06T10:10:05;28.40;26.80
32394;DHT22;18853;45.426;9.206;2023-08-06T10:12:40;28.50;28.10
32394;DHT22;18853;45.426;9.206;2023-08-06T10:15:16;28.50;29.00
32394;DHT22;18853;45.426;9.206;2023-08-06T10:17:45;28.50;29.10
32394;DHT22;18853;45.426;9.206;2023-08-06T10:20:12;28.50;29.00
32394;DHT22;18853;45.426;9.206;2023-08-06T10:22:42;28.60;29.70
32394;DHT22;18853;45.426;9.206;2023-08-06T10:25:09;28.60;30.90
32394;DHT22;18853;45.426;9.206;2023-08-06T10:32:57;28.70;30.20
32394;DHT22;18853;45.426;9.206;2023-08-06T10:35:38;28.80;28.30
32394;DHT22;18853;45.426;9.206;2023-08-06T10:38:18;28.80;25.60
32394;DHT22;18853;45.426;9.206;2023-08-06T10:41:02;28.80;28.30
32394;DHT22;18853;45.426;9.206;2023-08-06T10:43:34;28.80;29.10
32394;DHT22;18853;45.426;9.206;2023-08-06T10:46:02;28.80;29.10
32394;DHT22;18853;45.426;9.206;2023-08-06T10:48:31;28.80;28.70
32394;DHT22;18853;45.426;9.206;2023-08-06T10:50:57;28.80;27.70
32394;DHT22;18853;45.426;9.206;2023-08-06T10:53:22;28.80;27.70
32394;DHT22;18853;45.426;9.206;2023-08-06T10:55:48;28.80;28.60
32394;DHT22;18853;45.426;9.206;2023-08-06T10:58:17;28.80;29.80
32394;DHT22;18853;45.426;9.206;2023-08-06T11:00:43;28.90;30.70
32394;DHT22;18853;45.426;9.206;2023-08-06T11:03:09;28.80;31.30
32394;DHT22;18853;45.426;9.206;2023-08-06T11:05:35;28.80;31.50
32394;DHT22;18853;45.426;9.206;2023-08-06T11:08:01;28.90;31.90
32394;DHT22;18853;45.426;9.206;2023-08-06T11:10:27;28.90;32.30
32394;DHT22;18853;45.426;9.206;2023-08-06T11:12:53;28.90;31.80
32394;DHT22;18853;45.426;9.206;2023-08-06T11:15:20;28.90;30.80
32394;DHT22;18853;45.426;9.206;2023-08-06T11:17:47;29.00;29.80
32394;DHT22;18853;45.426;9.206;2023-08-06T11:20:13;29.00;29.90
32394;DHT22;18853;45.426;9.206;2023-08-06T11:22:39;29.00;28.80
32394;DHT22;18853;45.426;9.206;2023-08-06T11:25:06;29.00;28.40
32394;DHT22;18853;45.426;9.206;2023-08-06T11:27:32;29.10;27.60
32394;DHT22;18853;45.426;9.206;2023-08-06T11:29:58;29.20;28.10
32394;DHT22;18853;45.426;9.206;2023-08-06T11:32:23;29.20;29.30
32394;DHT22;18853;45.426;9.206;2023-08-06T11:34:49;29.20;29.90
32394;DHT22;18853;45.426;9.206;2023-08-06T11:37:15;29.10;28.80
32394;DHT22;18853;45.426;9.206;2023-08-06T11:39:46;29.20;28.70
32394;DHT22;18853;45.426;9.206;2023-08-06T11:42:14;29.30;29.30
32394;DHT22;18853;45.426;9.206;2023-08-06T11:44:41;29.30;28.10
32394;DHT22;18853;45.426;9.206;2023-08-06T11:47:16;29.30;27.80
32394;DHT22;18853;45.426;9.206;2023-08-06T11:49:49;29.30;27.90
32394;DHT22;18853;45.426;9.206;2023-08-06T11:54:44;29.30;28.60
32394;DHT22;18853;45.426;9.206;2023-08-06T11:57:10;29.30;27.90
32394;DHT22;18853;45.426;9.206;2023-08-06T11:59:37;29.40;26.50
32394;DHT22;18853;45.426;9.206;2023-08-06T12:02:05;29.40;25.60
32394;DHT22;18853;45.426;9.206;2023-08-06T12:04:32;29.50;26.80
32394;DHT22;18853;45.426;9.206;2023-08-06T12:07:07;29.60;26.80
32394;DHT22;18853;45.426;9.206;2023-08-06T12:09:35;29.70;26.70
32394;DHT22;18853;45.426;9.206;2023-08-06T12:12:01;29.80;26.50
32394;DHT22;18853;45.426;9.206;2023-08-06T12:14:27;29.80;26.30
32394;DHT22;18853;45.426;9.206;2023-08-06T12:16:53;29.90;26.50
32394;DHT22;18853;45.426;9.206;2023-08-06T12:19:18;29.90;26.00
32394;DHT22;18853;45.426;9.206;2023-08-06T12:21:44;30.00;26.20
32394;DHT22;18853;45.426;9.206;2023-08-06T12:24:09;30.10;26.30
32394;DHT22;18853;45.426;9.206;2023-08-06T12:26:36;30.10;26.40
32394;DHT22;18853;45.426;9.206;2023-08-06T12:29:01;30.10;26.30
32394;DHT22;18853;45.426;9.206;2023-08-06T12:31:27;30.10;25.80
32394;DHT22;18853;45.426;9.206;2023-08-06T12:33:53;30.20;25.70
32394;DHT22;18853;45.426;9.206;2023-08-06T12:36:18;30.30;25.90
32394;DHT22;18853;45.426;9.206;2023-08-06T12:38:44;30.40;25.60
32394;DHT22;18853;45.426;9.206;2023-08-06T12:41:10;30.40;25.50
32394;DHT22;18853;45.426;9.206;2023-08-06T12:43:35;30.40;25.80
32394;DHT22;18853;45.426;9.206;2023-08-06T12:46:01;30.50;26.90
32394;DHT22;18853;45.426;9.206;2023-08-06T12:48:26;30.60;26.40
32394;DHT22;18853;45.426;9.206;2023-08-06T12:50:52;30.70;26.60
32394;DHT22;18853;45.426;9.206;2023-08-06T12:53:18;30.70;25.80
32394;DHT22;18853;45.426;9.206;2023-08-06T12:55:46;30.70;25.70
32394;DHT22;18853;45.426;9.206;2023-08-06T12:58:12;30.70;25.20
32394;DHT22;18853;45.426;9.206;2023-08-06T13:00:37;30.80;24.80
32394;DHT22;18853;45.426;9.206;2023-08-06T13:03:03;30.80;24.20
32394;DHT22;18853;45.426;9.206;2023-08-06T13:05:28;30.80;24.00
32394;DHT22;18853;45.426;9.206;2023-08-06T13:07:54;30.80;23.70
32394;DHT22;18853;45.426;9.206;2023-08-06T13:10:20;30.90;23.80
32394;DHT22;18853;45.426;9.206;2023-08-06T13:12:46;31.00;24.20
32394;DHT22;18853;45.426;9.206;2023-08-06T13:15:12;31.20;24.30
32394;DHT22;18853;45.426;9.206;2023-08-06T13:17:39;31.30;24.00
32394;DHT22;18853;45.426;9.206;2023-08-06T13:20:06;31.30;23.70
32394;DHT22;18853;45.426;9.206;2023-08-06T13:22:31;31.30;23.60
32394;DHT22;18853;45.426;9.206;2023-08-06T13:24:57;31.30;23.30
32394;DHT22;18853;45.426;9.206;2023-08-06T13:27:23;31.40;23.30
32394;DHT22;18853;45.426;9.206;2023-08-06T13:29:48;31.40;23.30
32394;DHT22;18853;45.426;9.206;2023-08-06T13:32:14;31.50;23.30
32394;DHT22;18853;45.426;9.206;2023-08-06T13:34:39;31.60;23.70
32394;DHT22;18853;45.426;9.206;2023-08-06T13:37:05;31.60;24.20
32394;DHT22;18853;45.426;9.206;2023-08-06T13:39:31;31.70;24.90
32394;DHT22;18853;45.426;9.206;2023-08-06T13:41:56;31.70;23.90
32394;DHT22;18853;45.426;9.206;2023-08-06T13:44:22;31.70;23.30
32394;DHT22;18853;45.426;9.206;2023-08-06T13:46:48;31.70;23.10
32394;DHT22;18853;45.426;9.206;2023-08-06T13:49:13;31.80;23.20
32394;DHT22;18853;45.426;9.206;2023-08-06T13:51:39;31.90;23.30
32394;DHT22;18853;45.426;9.206;2023-08-06T13:54:04;31.90;23.50
32394;DHT22;18853;45.426;9.206;2023-08-06T13:56:31;32.00;23.40
32394;DHT22;18853;45.426;9.206;2023-08-06T13:58:57;32.10;24.50
32394;DHT22;18853;45.426;9.206;2023-08-06T14:01:23;32.20;23.00
32394;DHT22;18853;45.426;9.206;2023-08-06T14:03:48;32.20;19.70
32394;DHT22;18853;45.426;9.206;2023-08-06T14:06:14;32.20;18.90
32394;DHT22;18853;45.426;9.206;2023-08-06T14:08:40;32.30;18.40
32394;DHT22;18853;45.426;9.206;2023-08-06T14:11:05;32.30;18.40
32394;DHT22;18853;45.426;9.206;2023-08-06T14:13:32;32.50;18.20
32394;DHT22;18853;45.426;9.206;2023-08-06T14:15:57;32.60;18.30
32394;DHT22;18853;45.426;9.206;2023-08-06T14:18:23;32.70;18.20
32394;DHT22;18853;45.426;9.206;2023-08-06T14:20:49;32.80;17.80
32394;DHT22;18853;45.426;9.206;2023-08-06T14:23:14;33.00;18.10
32394;DHT22;18853;45.426;9.206;2023-08-06T14:25:40;33.00;17.50
32394;DHT22;18853;45.426;9.206;2023-08-06T14:28:05;33.00;17.40
32394;DHT22;18853;45.426;9.206;2023-08-06T14:30:32;33.10;17.90
32394;DHT22;18853;45.426;9.206;2023-08-06T14:32:58;33.30;17.50
32394;DHT22;18853;45.426;9.206;2023-08-06T14:35:26;33.30;16.40
32394;DHT22;18853;45.426;9.206;2023-08-06T14:37:51;33.20;16.50
32394;DHT22;18853;45.426;9.206;2023-08-06T14:40:17;33.30;16.50
32394;DHT22;18853;45.426;9.206;2023-08-06T14:42:43;33.40;16.80
32394;DHT22;18853;45.426;9.206;2023-08-06T14:45:09;33.40;17.30
32394;DHT22;18853;45.426;9.206;2023-08-06T14:47:34;33.50;16.50
32394;DHT22;18853;45.426;9.206;2023-08-06T14:50:00;33.50;15.90
32394;DHT22;18853;45.426;9.206;2023-08-06T14:52:26;33.50;16.10
32394;DHT22;18853;45.426;9.206;2023-08-06T14:54:52;33.40;15.80
32394;DHT22;18853;45.426;9.206;2023-08-06T14:57:20;33.40;15.70
32394;DHT22;18853;45.426;9.206;2023-08-06T14:59:47;33.40;15.80
32394;DHT22;18853;45.426;9.206;2023-08-06T15:02:12;33.40;15.30
32394;DHT22;18853;45.426;9.206;2023-08-06T15:04:38;33.60;16.40
32394;DHT22;18853;45.426;9.206;2023-08-06T15:07:03;33.60;15.50
32394;DHT22;18853;45.426;9.206;2023-08-06T15:09:29;33.70;15.50
32394;DHT22;18853;45.426;9.206;2023-08-06T15:11:55;33.80;15.50
32394;DHT22;18853;45.426;9.206;2023-08-06T15:14:21;33.80;15.20
32394;DHT22;18853;45.426;9.206;2023-08-06T15:16:47;33.60;15.30
32394;DHT22;18853;45.426;9.206;2023-08-06T15:19:13;33.70;15.60
32394;DHT22;18853;45.426;9.206;2023-08-06T15:21:38;33.70;15.40
32394;DHT22;18853;45.426;9.206;2023-08-06T15:24:04;33.60;15.30
32394;DHT22;18853;45.426;9.206;2023-08-06T15:26:30;33.80;15.20
32394;DHT22;18853;45.426;9.206;2023-08-06T15:28:55;33.80;15.60
32394;DHT22;18853;45.426;9.206;2023-08-06T15:31:22;34.00;16.30
32394;DHT22;18853;45.426;9.206;2023-08-06T15:33:48;34.10;15.60
32394;DHT22;18853;45.426;9.206;2023-08-06T15:36:14;34.10;17.10
32394;DHT22;18853;45.426;9.206;2023-08-06T15:38:39;34.10;16.40